createdAt,value
2019-04-30T00:01:27.724Z,8.53
2019-04-30T00:04:08.178Z,8.70
2019-04-30T00:06:39.433Z,8.17
2019-04-30T00:09:19.004Z,8.83
2019-04-30T00:12:01.517Z,9.63
2019-04-30T00:14:40.816Z,7.87
2019-04-30T00:17:10.688Z,10.10
2019-04-30T00:19:40.910Z,10.47
2019-04-30T00:22:15.810Z,11.07
2019-04-30T00:24:49.905Z,11.10
2019-04-30T00:27:26.379Z,13.63
2019-04-30T00:30:07.358Z,12.63
2019-04-30T00:32:39.353Z,14.67
2019-04-30T00:35:07.009Z,17.27
2019-04-30T00:37:35.495Z,13.47
2019-04-30T00:40:05.577Z,15.60
2019-04-30T00:42:35.780Z,13.47
2019-04-30T00:45:10.027Z,16.40
2019-04-30T00:47:39.453Z,11.00
2019-04-30T00:50:09.131Z,12.70
2019-04-30T00:52:38.347Z,12.37
2019-04-30T00:55:09.191Z,10.17
2019-04-30T00:57:43.634Z,10.87
2019-04-30T01:00:10.974Z,7.50
2019-04-30T01:02:51.924Z,7.50
2019-04-30T01:05:21.207Z,7.70
2019-04-30T01:07:51.903Z,7.43
2019-04-30T01:10:24.751Z,6.70
2019-04-30T01:12:52.357Z,8.57
2019-04-30T01:15:21.662Z,24.27
2019-04-30T01:17:53.734Z,22.50
2019-04-30T01:20:24.141Z,13.90
2019-04-30T01:22:53.623Z,10.33
2019-04-30T01:25:23.515Z,8.43
2019-04-30T01:27:53.087Z,8.30
2019-04-30T01:30:23.264Z,9.40
2019-04-30T01:32:56.806Z,22.33
2019-04-30T01:35:23.780Z,11.40
2019-04-30T01:37:54.149Z,11.20
2019-04-30T01:40:23.367Z,12.57
2019-04-30T01:42:52.556Z,7.40
2019-04-30T01:45:23.078Z,8.37
2019-04-30T01:47:52.696Z,6.43
2019-04-30T01:50:22.003Z,7.03
2019-04-30T01:52:54.250Z,6.57
2019-04-30T01:55:42.620Z,6.67
2019-04-30T01:58:21.276Z,6.13
2019-04-30T02:00:56.922Z,8.17
2019-04-30T02:03:26.718Z,4.30
2019-04-30T02:05:55.915Z,5.20
2019-04-30T02:08:25.115Z,7.00
2019-04-30T02:10:54.347Z,5.33
2019-04-30T02:13:23.551Z,4.97
2019-04-30T02:15:52.780Z,5.13
2019-04-30T02:18:21.983Z,5.17
2019-04-30T02:20:51.216Z,6.33
2019-04-30T02:23:20.416Z,5.87
2019-04-30T02:25:49.606Z,7.83
2019-04-30T02:28:19.107Z,7.37
2019-04-30T02:30:50.383Z,10.70
2019-04-30T02:33:20.160Z,9.20
2019-04-30T02:36:19.709Z,9.00
2019-04-30T02:38:51.444Z,9.57
2019-04-30T02:41:21.942Z,8.73
2019-04-30T02:43:53.371Z,8.13
2019-04-30T02:46:25.542Z,9.20
2019-04-30T02:48:59.523Z,7.43
2019-04-30T02:51:30.938Z,10.33
2019-04-30T02:54:14.373Z,10.77
2019-04-30T02:56:45.480Z,10.53
2019-04-30T02:59:14.681Z,14.00
2019-04-30T03:01:43.992Z,21.20
2019-04-30T03:04:13.178Z,17.90
2019-04-30T03:06:42.400Z,24.27
2019-04-30T03:09:11.617Z,17.13
2019-04-30T03:11:41.143Z,25.60
2019-04-30T03:14:10.877Z,26.60
2019-04-30T03:16:55.764Z,24.47
2019-04-30T03:19:34.007Z,18.53
2019-04-30T03:22:10.208Z,17.30
2019-04-30T03:24:39.821Z,17.07
2019-04-30T03:27:09.901Z,19.00
2019-04-30T03:29:40.505Z,26.20
2019-04-30T03:32:13.303Z,17.73
2019-04-30T03:34:42.277Z,25.87
2019-04-30T03:37:11.895Z,22.77
2019-04-30T03:39:41.068Z,27.33
2019-04-30T03:42:10.360Z,27.43
2019-04-30T03:44:40.255Z,30.97
2019-04-30T03:47:11.018Z,32.60
2019-04-30T03:49:40.525Z,31.27
2019-04-30T03:52:13.063Z,31.23
2019-04-30T03:54:40.995Z,25.03
2019-04-30T03:57:10.868Z,23.57
2019-04-30T03:59:40.311Z,26.03
2019-04-30T04:02:30.240Z,29.90
2019-04-30T04:05:15.216Z,27.23
2019-04-30T04:08:05.457Z,26.97
2019-04-30T04:10:56.702Z,27.57
2019-04-30T04:13:25.916Z,35.30
2019-04-30T04:15:55.196Z,38.03
2019-04-30T04:18:24.413Z,31.97
2019-04-30T04:21:07.531Z,36.67
2019-04-30T04:23:24.499Z,41.10
2019-04-30T04:25:53.749Z,45.97
2019-04-30T04:28:22.957Z,39.77
2019-04-30T04:30:52.184Z,32.33
2019-04-30T04:33:21.384Z,46.83
2019-04-30T04:35:50.593Z,38.57
2019-04-30T04:38:20.485Z,37.60
2019-04-30T04:40:50.422Z,35.13
2019-04-30T04:43:20.307Z,37.60
2019-04-30T04:45:50.101Z,39.90
2019-04-30T04:48:22.981Z,44.67
2019-04-30T04:50:50.453Z,29.43
2019-04-30T04:53:19.783Z,43.57
2019-04-30T04:55:49.899Z,40.20
2019-04-30T04:58:21.487Z,44.03
2019-04-30T05:00:50.204Z,49.67
2019-04-30T05:03:36.867Z,42.97
2019-04-30T05:06:06.216Z,39.03
2019-04-30T05:08:35.428Z,39.40
2019-04-30T05:11:04.757Z,40.23
2019-04-30T05:13:34.770Z,39.57
2019-04-30T05:16:04.151Z,39.03
2019-04-30T05:18:33.379Z,35.83
2019-04-30T05:21:02.521Z,31.63
2019-04-30T05:23:31.747Z,32.30
2019-04-30T05:26:01.043Z,28.33
2019-04-30T05:28:30.350Z,27.47
2019-04-30T05:30:59.550Z,27.80
2019-04-30T05:33:28.797Z,25.00
2019-04-30T05:35:59.435Z,25.97
2019-04-30T05:38:31.263Z,26.53
2019-04-30T05:40:59.750Z,27.30
2019-04-30T05:43:29.195Z,26.37
2019-04-30T05:45:58.776Z,23.97
2019-04-30T05:48:28.771Z,29.73
2019-04-30T05:50:59.107Z,27.77
2019-04-30T05:53:28.765Z,27.30
2019-04-30T05:55:59.387Z,31.53
2019-04-30T05:58:29.964Z,29.43
2019-04-30T06:00:59.815Z,33.93
2019-04-30T06:03:32.898Z,32.20
2019-04-30T06:06:00.103Z,31.97
2019-04-30T06:08:36.278Z,32.73
2019-04-30T06:11:19.270Z,39.27
2019-04-30T06:14:05.612Z,38.57
2019-04-30T06:16:34.988Z,40.30
2019-04-30T06:19:04.261Z,37.63
2019-04-30T06:21:33.471Z,38.87
2019-04-30T06:24:02.687Z,39.07
2019-04-30T06:26:31.996Z,35.00
2019-04-30T06:29:01.440Z,41.07
2019-04-30T06:31:34.322Z,40.70
2019-04-30T06:34:01.851Z,41.67
2019-04-30T06:36:31.139Z,40.03
2019-04-30T06:39:00.327Z,43.10
2019-04-30T06:41:29.700Z,42.27
2019-04-30T06:43:59.117Z,40.13
2019-04-30T06:46:28.639Z,35.83
2019-04-30T06:48:59.531Z,35.17
2019-04-30T06:51:30.586Z,36.53
2019-04-30T06:53:59.751Z,37.73
2019-04-30T06:56:28.991Z,39.63
2019-04-30T06:58:59.005Z,43.50
2019-04-30T07:01:29.042Z,42.00
2019-04-30T07:04:00.813Z,43.37
2019-04-30T07:06:32.549Z,43.47
2019-04-30T07:09:39.746Z,41.47
2019-04-30T07:12:09.039Z,42.00
2019-04-30T07:14:41.734Z,47.87
2019-04-30T07:17:09.549Z,48.47
2019-04-30T07:19:53.212Z,39.00
2019-04-30T07:22:09.769Z,46.33
2019-04-30T07:24:39.422Z,42.07
2019-04-30T07:27:09.404Z,43.13
2019-04-30T07:29:39.283Z,42.30
2019-04-30T07:32:09.442Z,39.57
2019-04-30T07:34:39.581Z,42.77
2019-04-30T07:37:14.599Z,41.80
2019-04-30T07:39:39.682Z,41.53
2019-04-30T07:42:09.307Z,39.03
2019-04-30T07:44:39.492Z,40.10
2019-04-30T07:47:09.664Z,35.37
2019-04-30T07:49:49.745Z,37.20
2019-04-30T07:52:11.459Z,34.97
2019-04-30T07:54:40.784Z,36.93
2019-04-30T07:57:09.983Z,34.63
2019-04-30T07:59:39.674Z,31.20
2019-04-30T08:02:13.873Z,35.03
2019-04-30T08:05:05.002Z,34.03
2019-04-30T08:07:34.359Z,35.27
2019-04-30T08:10:04.415Z,32.53
2019-04-30T08:12:36.526Z,29.90
2019-04-30T08:15:05.316Z,31.27
2019-04-30T08:17:34.514Z,33.60
2019-04-30T08:20:03.871Z,29.77
2019-04-30T08:22:33.394Z,32.20
2019-04-30T08:25:02.568Z,29.20
2019-04-30T08:27:31.756Z,30.90
2019-04-30T08:30:00.999Z,30.70
2019-04-30T08:32:30.209Z,32.93
2019-04-30T08:35:01.194Z,29.37
2019-04-30T08:37:30.276Z,26.30
2019-04-30T08:40:00.271Z,28.43
2019-04-30T08:42:34.165Z,26.73
2019-04-30T08:45:02.020Z,25.33
2019-04-30T08:47:31.236Z,32.80
2019-04-30T08:50:02.654Z,25.50
2019-04-30T08:52:31.946Z,24.13
2019-04-30T08:55:13.472Z,23.80
2019-04-30T08:57:32.026Z,26.27
2019-04-30T09:00:01.264Z,24.00
2019-04-30T09:02:31.049Z,22.13
2019-04-30T09:05:04.289Z,21.40
2019-04-30T09:07:33.508Z,20.93
2019-04-30T09:10:04.798Z,23.27
2019-04-30T09:12:33.647Z,23.10
2019-04-30T09:15:02.932Z,22.63
2019-04-30T09:17:32.154Z,20.97
2019-04-30T09:20:01.406Z,21.70
2019-04-30T09:22:30.618Z,20.87
2019-04-30T09:24:59.928Z,20.67
2019-04-30T09:27:29.637Z,23.20
2019-04-30T09:29:58.963Z,21.10
2019-04-30T09:32:29.085Z,20.00
2019-04-30T09:34:58.775Z,22.03
2019-04-30T09:37:28.095Z,22.20
2019-04-30T09:39:59.247Z,23.53
2019-04-30T09:42:29.570Z,20.00
2019-04-30T09:44:59.604Z,19.57
2019-04-30T09:47:29.570Z,19.33
2019-04-30T09:49:59.620Z,19.23
2019-04-30T09:52:30.768Z,19.33
2019-04-30T09:55:00.074Z,20.17
2019-04-30T09:57:29.517Z,18.97
2019-04-30T10:00:00.473Z,20.67
2019-04-30T10:02:29.684Z,22.07
2019-04-30T10:04:59.285Z,21.60
2019-04-30T10:07:29.351Z,22.13
2019-04-30T10:09:59.119Z,20.33
2019-04-30T10:12:29.433Z,22.23
2019-04-30T10:14:59.283Z,20.93
2019-04-30T10:17:42.144Z,20.87
2019-04-30T10:20:14.419Z,19.43
2019-04-30T10:22:43.844Z,20.80
2019-04-30T10:25:13.294Z,19.37
2019-04-30T10:27:42.525Z,17.63
2019-04-30T10:30:12.803Z,19.10
2019-04-30T10:32:41.964Z,19.27
2019-04-30T10:35:12.692Z,18.03
2019-04-30T10:37:41.891Z,21.37
2019-04-30T10:40:11.426Z,19.20
2019-04-30T10:42:40.696Z,18.03
2019-04-30T10:45:10.999Z,17.07
2019-04-30T10:47:40.240Z,16.40
2019-04-30T10:50:10.077Z,19.77
2019-04-30T10:52:39.408Z,16.43
2019-04-30T10:55:09.339Z,23.03
2019-04-30T10:57:39.647Z,21.90
2019-04-30T11:00:12.664Z,21.17
2019-04-30T11:02:41.883Z,15.73
2019-04-30T11:05:11.292Z,20.70
2019-04-30T11:07:40.515Z,16.53
2019-04-30T11:10:10.341Z,17.57
2019-04-30T11:12:39.563Z,18.73
2019-04-30T11:15:09.241Z,17.23
2019-04-30T11:17:39.754Z,19.60
2019-04-30T11:20:10.300Z,17.00
2019-04-30T11:22:39.863Z,18.13
2019-04-30T11:25:10.078Z,19.33
2019-04-30T11:27:40.779Z,15.87
2019-04-30T11:30:20.269Z,17.10
2019-04-30T11:32:42.226Z,16.30
2019-04-30T11:35:11.976Z,14.63
2019-04-30T11:37:41.202Z,12.13
2019-04-30T11:40:12.584Z,14.47
2019-04-30T11:42:41.805Z,15.37
2019-04-30T11:45:12.387Z,11.47
2019-04-30T11:47:52.860Z,11.60
2019-04-30T11:50:14.116Z,13.33
2019-04-30T11:52:43.396Z,12.43
2019-04-30T11:55:12.831Z,16.67
2019-04-30T11:57:42.130Z,13.00
2019-04-30T12:00:18.690Z,12.37
2019-04-30T12:02:52.628Z,12.27
2019-04-30T12:05:20.749Z,12.60
2019-04-30T12:08:02.068Z,13.00
2019-04-30T12:10:39.178Z,11.70
2019-04-30T12:13:24.441Z,12.13
2019-04-30T12:15:54.351Z,11.03
2019-04-30T12:18:23.957Z,14.37
2019-04-30T12:20:53.208Z,12.47
2019-04-30T12:23:22.498Z,12.87
2019-04-30T12:25:51.735Z,12.50
2019-04-30T12:28:21.051Z,14.03
2019-04-30T12:30:50.296Z,14.53
2019-04-30T12:33:19.555Z,12.07
2019-04-30T12:35:51.051Z,16.17
2019-04-30T12:38:19.692Z,15.43
2019-04-30T12:40:48.957Z,16.17
2019-04-30T12:43:18.192Z,14.13
2019-04-30T12:45:52.629Z,16.37
2019-04-30T12:48:23.781Z,14.25
2019-04-30T12:51:04.664Z,13.30
2019-04-30T12:53:51.328Z,15.03
2019-04-30T12:56:45.463Z,17.70
2019-04-30T12:59:14.780Z,16.15
2019-04-30T13:01:44.051Z,13.72
2019-04-30T13:04:13.275Z,15.30
2019-04-30T13:06:42.873Z,22.25
2019-04-30T13:09:13.090Z,16.35
2019-04-30T13:11:42.989Z,17.77
2019-04-30T13:14:12.932Z,16.95
2019-04-30T13:16:42.382Z,15.53
2019-04-30T13:19:11.667Z,18.55
2019-04-30T13:21:40.863Z,14.07
2019-04-30T13:24:10.136Z,14.15
2019-04-30T13:26:39.757Z,14.85
2019-04-30T13:29:14.343Z,20.52
2019-04-30T13:31:43.631Z,17.75
2019-04-30T13:34:34.699Z,17.52
2019-04-30T13:37:03.983Z,19.02
2019-04-30T13:39:49.883Z,17.25
2019-04-30T13:42:29.366Z,15.88
2019-04-30T13:44:58.763Z,18.85
2019-04-30T13:47:29.246Z,16.45
2019-04-30T13:49:59.378Z,19.90
2019-04-30T13:52:28.877Z,19.43
2019-04-30T13:54:59.531Z,19.17
2019-04-30T13:57:28.735Z,24.63
2019-04-30T13:59:58.628Z,18.50
2019-04-30T14:02:30.779Z,23.10
2019-04-30T14:05:14.456Z,18.83
2019-04-30T14:08:05.491Z,19.27
2019-04-30T14:10:39.292Z,19.83
2019-04-30T14:13:09.556Z,22.73
2019-04-30T14:15:38.951Z,21.30
2019-04-30T14:18:09.359Z,22.80
2019-04-30T14:20:38.787Z,20.67
2019-04-30T14:23:08.614Z,20.30
2019-04-30T14:25:38.864Z,21.63
2019-04-30T14:28:09.462Z,21.03
2019-04-30T14:30:39.365Z,21.37
2019-04-30T14:33:09.479Z,20.47
2019-04-30T14:35:38.852Z,22.87
2019-04-30T14:38:09.033Z,21.47
2019-04-30T14:40:40.480Z,20.57
2019-04-30T14:43:19.506Z,24.87
2019-04-30T14:46:06.132Z,23.03
2019-04-30T14:48:41.575Z,22.07
2019-04-30T14:51:11.321Z,22.33
2019-04-30T14:54:05.617Z,22.30
2019-04-30T14:56:51.125Z,23.83
2019-04-30T14:59:39.033Z,21.10
2019-04-30T15:02:45.520Z,20.83
2019-04-30T15:05:16.820Z,23.03
2019-04-30T15:07:46.042Z,22.10
2019-04-30T15:10:15.768Z,24.73
2019-04-30T15:12:44.987Z,20.97
2019-04-30T15:15:14.367Z,22.17
2019-04-30T15:17:43.626Z,22.90
2019-04-30T15:20:13.017Z,24.13
2019-04-30T15:22:48.931Z,27.63
2019-04-30T15:25:18.221Z,23.70
2019-04-30T15:27:49.633Z,25.73
2019-04-30T15:30:21.477Z,26.87
2019-04-30T15:32:52.755Z,27.17
2019-04-30T15:35:21.961Z,29.50
2019-04-30T15:37:52.819Z,29.00
2019-04-30T15:40:22.511Z,26.90
2019-04-30T15:42:53.434Z,27.40
2019-04-30T15:45:22.718Z,27.80
2019-04-30T15:47:51.985Z,29.03
2019-04-30T15:50:21.197Z,25.67
2019-04-30T15:52:50.431Z,28.03
2019-04-30T15:55:19.656Z,28.40
2019-04-30T15:58:04.041Z,28.73
2019-04-30T16:00:33.207Z,29.17
2019-04-30T16:03:09.505Z,28.37
2019-04-30T16:05:41.739Z,32.27
2019-04-30T16:08:36.320Z,29.13
2019-04-30T16:11:11.848Z,29.47
2019-04-30T16:14:18.642Z,30.53
2019-04-30T16:17:05.544Z,33.23
2019-04-30T16:19:34.795Z,33.10
2019-04-30T16:22:06.041Z,29.23
2019-04-30T16:24:38.698Z,30.27
2019-04-30T16:27:09.264Z,30.10
2019-04-30T16:29:40.678Z,30.93
2019-04-30T16:32:09.629Z,29.80
2019-04-30T16:34:39.030Z,26.77
2019-04-30T16:37:08.276Z,28.73
2019-04-30T16:39:37.540Z,31.07
2019-04-30T16:42:09.097Z,31.10
2019-04-30T16:44:38.483Z,29.17
2019-04-30T16:47:14.547Z,33.80
2019-04-30T16:49:38.795Z,29.33
2019-04-30T16:52:09.215Z,31.53
2019-04-30T16:54:39.512Z,31.37
2019-04-30T16:57:10.270Z,34.80
2019-04-30T16:59:41.892Z,31.60
2019-04-30T17:02:13.063Z,32.83
2019-04-30T17:05:08.534Z,35.00
2019-04-30T17:07:59.585Z,33.97
2019-04-30T17:10:56.375Z,34.83
2019-04-30T17:13:47.421Z,34.20
2019-04-30T17:16:19.579Z,38.20
2019-04-30T17:18:49.501Z,34.83
2019-04-30T17:21:19.793Z,36.10
2019-04-30T17:23:50.952Z,34.63
2019-04-30T17:26:20.023Z,34.63
2019-04-30T17:28:49.922Z,33.53
2019-04-30T17:31:19.432Z,36.10
2019-04-30T17:33:48.646Z,32.50
2019-04-30T17:36:18.817Z,27.43
2019-04-30T17:38:48.084Z,30.43
2019-04-30T17:41:17.303Z,28.53
2019-04-30T17:43:46.521Z,32.07
2019-04-30T17:46:15.844Z,31.33
2019-04-30T17:48:45.061Z,29.47
2019-04-30T17:51:14.277Z,29.03
2019-04-30T17:54:01.103Z,31.53
2019-04-30T17:56:30.437Z,26.93
2019-04-30T17:58:59.648Z,35.50
2019-04-30T18:01:28.940Z,28.47
2019-04-30T18:03:58.806Z,28.57
2019-04-30T18:06:28.051Z,27.20
2019-04-30T18:08:57.324Z,30.43
2019-04-30T18:11:26.632Z,29.90
2019-04-30T18:13:55.859Z,29.20
2019-04-30T18:16:25.164Z,32.67
2019-04-30T18:19:00.384Z,27.07
2019-04-30T18:21:33.609Z,28.00
2019-04-30T18:24:30.874Z,27.60
2019-04-30T18:27:09.138Z,30.00
2019-04-30T18:29:38.343Z,28.77
2019-04-30T18:32:09.272Z,25.70
2019-04-30T18:34:39.107Z,27.67
2019-04-30T18:37:09.328Z,25.93
2019-04-30T18:39:38.607Z,30.23
2019-04-30T18:42:10.809Z,28.03
2019-04-30T18:44:38.714Z,28.50
2019-04-30T18:47:09.048Z,28.23
2019-04-30T18:49:39.883Z,26.80
2019-04-30T18:52:09.407Z,28.07
2019-04-30T18:54:39.710Z,30.10
2019-04-30T18:57:09.469Z,26.47
2019-04-30T18:59:39.028Z,27.50
2019-04-30T19:02:11.466Z,27.10
2019-04-30T19:04:41.020Z,30.97
2019-04-30T19:07:23.079Z,28.80
2019-04-30T19:10:00.373Z,30.10
2019-04-30T19:12:48.936Z,28.07
2019-04-30T19:16:14.836Z,32.37
2019-04-30T19:18:28.872Z,30.57
2019-04-30T19:21:00.099Z,26.87
2019-04-30T19:23:29.748Z,29.10
2019-04-30T19:25:59.739Z,25.00
2019-04-30T19:28:29.498Z,29.90
2019-04-30T19:31:01.016Z,25.60
2019-04-30T19:33:32.039Z,28.73
2019-04-30T19:36:02.098Z,26.47
2019-04-30T19:38:32.265Z,32.80
2019-04-30T19:41:02.872Z,28.73
2019-04-30T19:43:32.406Z,31.13
2019-04-30T19:46:02.529Z,31.50
2019-04-30T19:48:32.650Z,32.93
2019-04-30T19:51:02.333Z,35.40
2019-04-30T19:53:32.211Z,37.57
2019-04-30T19:56:02.191Z,36.97
2019-04-30T19:58:47.659Z,37.70
2019-04-30T20:01:03.041Z,41.43
2019-04-30T20:03:32.441Z,36.27
2019-04-30T20:06:02.305Z,38.67
2019-04-30T20:08:32.373Z,37.37
2019-04-30T20:11:03.327Z,41.13
2019-04-30T20:13:37.044Z,36.47
2019-04-30T20:16:04.722Z,40.93
2019-04-30T20:18:34.288Z,39.60
2019-04-30T20:21:09.084Z,33.87
2019-04-30T20:23:38.749Z,32.87
2019-04-30T20:26:09.883Z,37.53
2019-04-30T20:28:42.391Z,33.70
2019-04-30T20:31:11.532Z,35.77
2019-04-30T20:33:41.754Z,30.93
2019-04-30T20:36:12.009Z,32.67
2019-04-30T20:39:18.626Z,31.33
2019-04-30T20:41:51.451Z,31.13
2019-04-30T20:44:20.739Z,33.53
2019-04-30T20:46:49.947Z,31.27
2019-04-30T20:49:19.334Z,33.30
2019-04-30T20:51:55.064Z,31.10
2019-04-30T20:54:19.611Z,31.87
2019-04-30T20:56:51.073Z,32.30
2019-04-30T20:59:19.696Z,36.80
2019-04-30T21:01:49.069Z,32.33
2019-04-30T21:04:20.761Z,33.87
2019-04-30T21:06:49.705Z,38.03
2019-04-30T21:09:18.920Z,35.87
2019-04-30T21:11:49.001Z,32.53
2019-04-30T21:14:19.205Z,36.60
2019-04-30T21:16:48.682Z,36.80
2019-04-30T21:19:18.037Z,38.23
2019-04-30T21:21:47.252Z,35.03
2019-04-30T21:24:16.506Z,38.63
2019-04-30T21:26:45.708Z,39.33
2019-04-30T21:29:16.005Z,39.73
2019-04-30T21:32:03.340Z,38.47
2019-04-30T21:34:51.595Z,39.60
2019-04-30T21:37:20.985Z,40.20
2019-04-30T21:39:50.245Z,41.03
2019-04-30T21:42:19.540Z,43.20
2019-04-30T21:44:48.805Z,41.83
2019-04-30T21:47:18.015Z,42.53
2019-04-30T21:49:47.280Z,42.30
2019-04-30T21:52:16.543Z,39.00
2019-04-30T21:54:45.765Z,40.07
2019-04-30T21:57:14.977Z,40.00
2019-04-30T21:59:44.220Z,46.87
2019-04-30T22:02:13.403Z,44.13
2019-04-30T22:04:42.603Z,46.70
2019-04-30T22:07:11.875Z,41.57
2019-04-30T22:09:41.154Z,40.20
2019-04-30T22:12:10.483Z,38.67
2019-04-30T22:14:39.780Z,40.83
2019-04-30T22:17:09.347Z,38.33
2019-04-30T22:19:38.651Z,40.77
2019-04-30T22:22:09.415Z,42.60
2019-04-30T22:24:38.914Z,40.33
2019-04-30T22:27:08.200Z,42.80
2019-04-30T22:29:41.847Z,38.97
2019-04-30T22:32:09.341Z,35.10
2019-04-30T22:34:38.661Z,34.67
2019-04-30T22:37:08.572Z,42.50
2019-04-30T22:39:49.491Z,38.97
2019-04-30T22:42:39.773Z,47.17
2019-04-30T22:45:36.231Z,37.70
2019-04-30T22:48:05.467Z,35.47
2019-04-30T22:50:34.674Z,38.00
2019-04-30T22:53:04.346Z,40.43
2019-04-30T22:55:33.546Z,42.97
2019-04-30T22:58:02.782Z,39.97
2019-04-30T23:00:39.273Z,36.93
2019-04-30T23:03:39.904Z,35.03
2019-04-30T23:06:09.224Z,35.97
2019-04-30T23:08:38.531Z,35.83
2019-04-30T23:11:07.819Z,39.83
2019-04-30T23:13:37.168Z,39.43
2019-04-30T23:16:09.763Z,42.47
2019-04-30T23:18:39.060Z,40.87
2019-04-30T23:21:08.299Z,41.17
2019-04-30T23:23:37.484Z,39.53
2019-04-30T23:26:09.708Z,37.27
2019-04-30T23:28:39.009Z,35.63
2019-04-30T23:31:08.223Z,38.93
2019-04-30T23:33:37.453Z,37.47
2019-04-30T23:36:06.743Z,34.50
2019-04-30T23:38:35.969Z,36.53
2019-04-30T23:41:05.212Z,41.87
2019-04-30T23:43:34.511Z,44.60
2019-04-30T23:46:03.822Z,39.00
2019-04-30T23:48:33.068Z,45.37
2019-04-30T23:51:02.263Z,37.67
2019-04-30T23:53:31.496Z,36.67
2019-04-30T23:56:00.808Z,35.17
2019-04-30T23:58:30.147Z,37.23
